Cacoal Airport


Codes: SSKW/OAL
Name: Cacoal Airport
City: Cacoal
Country: Brazil
Elevation: 778 ft.
Wikipedia:

Photos at Cacoal Airport


   Photos courtesy of SpottingLog. You can add your own sightings and photos by signing up for a free trial today.



No photos found.

Weather at Cacoal Airport


Time (UTC)DescriptionTempratureWindCloud coverageVisibilityPressureHumidity
16-Jun-2024 09:00Clear Sky20°C0 mph, SE9%10000m1013hPa75%
16-Jun-2024 12:00Few Clouds21°C2 mph, NE18%10000m1014hPa71%
16-Jun-2024 15:00Scattered Clouds27°C4 mph, NE27%10000m1014hPa53%
16-Jun-2024 18:00Few Clouds34°C4 mph, NE22%10000m1011hPa31%
16-Jun-2024 21:00Few Clouds30°C2 mph, NW18%10000m1010hPa47%
17-Jun-2024 00:00Clear Sky25°C2 mph, SW9%10000m1011hPa51%
17-Jun-2024 03:00Clear Sky22°C2 mph, E0%10000m1012hPa60%
17-Jun-2024 06:00Clear Sky21°C2 mph, SE0%10000m1011hPa65%
17-Jun-2024 09:00Clear Sky20°C2 mph, E0%10000m1011hPa68%
17-Jun-2024 12:00Clear Sky23°C2 mph, NE0%10000m1013hPa58%
17-Jun-2024 15:00Clear Sky32°C4 mph, NE0%10000m1012hPa37%
17-Jun-2024 18:00Clear Sky35°C4 mph, N0%10000m1008hPa31%
17-Jun-2024 21:00Clear Sky30°C2 mph, W5%10000m1007hPa46%
18-Jun-2024 00:00Clear Sky25°C2 mph, NW3%10000m1009hPa55%
18-Jun-2024 03:00Clear Sky23°C2 mph, NW0%10000m1009hPa58%
18-Jun-2024 06:00Clear Sky22°C2 mph, NE0%10000m1009hPa61%
18-Jun-2024 09:00Clear Sky21°C4 mph, NE0%10000m1009hPa67%
18-Jun-2024 12:00Clear Sky24°C4 mph, NE0%10000m1011hPa60%
18-Jun-2024 15:00Clear Sky33°C4 mph, NE0%10000m1010hPa33%
18-Jun-2024 18:00Clear Sky35°C4 mph, N9%10000m1007hPa25%
18-Jun-2024 21:00Broken Clouds31°C4 mph, W55%10000m1006hPa41%
19-Jun-2024 00:00Broken Clouds25°C2 mph, NW52%10000m1008hPa49%
19-Jun-2024 03:00Scattered Clouds24°C2 mph, NE35%10000m1009hPa53%
19-Jun-2024 06:00Scattered Clouds22°C2 mph, N28%10000m1008hPa57%
19-Jun-2024 09:00Scattered Clouds22°C4 mph, NE43%10000m1009hPa57%
19-Jun-2024 12:00Scattered Clouds25°C4 mph, NE47%10000m1012hPa53%
19-Jun-2024 15:00Scattered Clouds32°C4 mph, N43%10000m1011hPa40%
19-Jun-2024 18:00Scattered Clouds35°C7 mph, N27%10000m1008hPa33%
19-Jun-2024 21:00Clear Sky32°C2 mph, SW9%10000m1006hPa45%
20-Jun-2024 00:00Clear Sky27°C4 mph, SW9%10000m1008hPa52%
20-Jun-2024 03:00Broken Clouds27°C2 mph, SE73%10000m1009hPa50%
20-Jun-2024 06:00Broken Clouds25°C4 mph, E77%10000m1009hPa55%
20-Jun-2024 09:00Overcast Clouds25°C2 mph, NW89%10000m1010hPa55%
20-Jun-2024 12:00Broken Clouds26°C2 mph, SE84%10000m1012hPa57%
20-Jun-2024 15:00Broken Clouds33°C2 mph, SE60%10000m1012hPa37%
20-Jun-2024 18:00Scattered Clouds36°C2 mph, NE41%10000m1008hPa30%
20-Jun-2024 21:00Scattered Clouds32°C2 mph, W50%10000m1007hPa41%
21-Jun-2024 00:00Broken Clouds28°C0 mph, W55%10000m1008hPa45%
21-Jun-2024 03:00Overcast Clouds28°C2 mph, E85%10000m1009hPa46%
21-Jun-2024 06:00Overcast Clouds25°C2 mph, E92%10000m1009hPa56%